createdAt,value
2022-09-16T00:01:37.034Z,100205.84
2022-09-16T00:04:03.556Z,100211.66
2022-09-16T00:06:30.325Z,100213.00
2022-09-16T00:08:58.615Z,100221.56
2022-09-16T00:11:25.179Z,100219.00
2022-09-16T00:13:51.826Z,100192.34
2022-09-16T00:16:24.604Z,100207.84
2022-09-16T00:18:55.718Z,100210.09
2022-09-16T00:21:23.078Z,100179.59
2022-09-16T00:23:49.596Z,100211.50
2022-09-16T00:26:16.188Z,100214.59
2022-09-16T00:28:43.263Z,100207.34
2022-09-16T00:31:09.795Z,100167.41
2022-09-16T00:33:36.427Z,100177.41
2022-09-16T00:36:11.338Z,100209.78
2022-09-16T00:38:38.580Z,100210.34
2022-09-16T00:41:06.164Z,100201.75
2022-09-16T00:43:53.987Z,100200.84
2022-09-16T00:46:27.725Z,100160.66
2022-09-16T00:48:54.527Z,100187.38
2022-09-16T00:51:22.094Z,100198.44
2022-09-16T00:53:56.975Z,100176.03
2022-09-16T00:56:26.310Z,100209.19
2022-09-16T00:59:09.943Z,100204.31
2022-09-16T01:01:37.156Z,100171.34
2022-09-16T01:04:14.086Z,100200.13
2022-09-16T01:06:40.645Z,100177.75
2022-09-16T01:09:07.317Z,100200.78
2022-09-16T01:11:34.064Z,100203.75
2022-09-16T01:14:21.000Z,100199.06
2022-09-16T01:16:58.214Z,100197.41
2022-09-16T01:19:55.597Z,100204.97
2022-09-16T01:22:29.607Z,100199.78
2022-09-16T01:25:11.431Z,100206.06
2022-09-16T01:27:51.766Z,100178.19
2022-09-16T01:30:18.487Z,100206.72
2022-09-16T01:32:58.763Z,100207.47
2022-09-16T01:35:36.108Z,100183.41
2022-09-16T01:38:20.872Z,100195.97
2022-09-16T01:41:07.261Z,100169.88
2022-09-16T01:43:44.838Z,100208.06
2022-09-16T01:46:23.094Z,100208.88
2022-09-16T01:48:58.665Z,100216.69
2022-09-16T01:51:31.802Z,100212.13
2022-09-16T01:54:12.621Z,100218.13
2022-09-16T01:57:03.923Z,100214.50
2022-09-16T02:00:06.635Z,100221.28
2022-09-16T02:02:39.237Z,100212.06
2022-09-16T02:05:09.820Z,100176.03
2022-09-16T02:07:47.703Z,100194.19
2022-09-16T02:10:20.839Z,100201.31
2022-09-16T02:12:49.882Z,100202.41
2022-09-16T02:15:22.095Z,100206.81
2022-09-16T02:17:57.649Z,100172.59
2022-09-16T02:20:27.668Z,100195.75
2022-09-16T02:22:59.470Z,100197.31
2022-09-16T02:25:26.746Z,100192.72
2022-09-16T02:27:54.080Z,100183.63
2022-09-16T02:30:22.049Z,100192.31
2022-09-16T02:33:03.742Z,100188.09
2022-09-16T02:35:31.443Z,100189.84
2022-09-16T02:38:04.887Z,100198.13
2022-09-16T02:40:37.537Z,100200.25
2022-09-16T02:43:04.261Z,100188.94
2022-09-16T02:45:47.250Z,100194.06
2022-09-16T02:48:23.063Z,100193.19
2022-09-16T02:50:59.834Z,100197.09
2022-09-16T02:53:52.930Z,100182.63
2022-09-16T02:56:27.633Z,100180.19
2022-09-16T02:58:54.113Z,100163.69
2022-09-16T03:01:22.041Z,100186.81
2022-09-16T03:03:48.944Z,100159.19
2022-09-16T03:06:17.619Z,100178.09
2022-09-16T03:08:45.222Z,100158.06
2022-09-16T03:11:32.071Z,100187.00
2022-09-16T03:14:01.506Z,100182.63
2022-09-16T03:16:46.139Z,100188.53
2022-09-16T03:19:24.948Z,100183.44
2022-09-16T03:22:15.266Z,100152.16
2022-09-16T03:25:00.786Z,100173.41
2022-09-16T03:27:34.538Z,100171.91
2022-09-16T03:30:09.319Z,100165.56
2022-09-16T03:32:58.392Z,100173.88
2022-09-16T03:35:32.179Z,100175.84
2022-09-16T03:37:59.921Z,100094.47
2022-09-16T03:40:29.838Z,100140.97
2022-09-16T03:42:57.874Z,100155.34
2022-09-16T03:45:24.513Z,100140.16
2022-09-16T03:47:52.460Z,100167.19
2022-09-16T03:50:20.373Z,100097.03
2022-09-16T03:52:47.117Z,100168.31
2022-09-16T03:55:13.813Z,100134.25
2022-09-16T03:57:40.826Z,100172.06
2022-09-16T04:00:08.621Z,100168.06
2022-09-16T04:02:35.942Z,100160.06
2022-09-16T04:05:03.638Z,100122.34
2022-09-16T04:07:33.493Z,100173.09
2022-09-16T04:10:00.205Z,100116.47
2022-09-16T04:12:27.062Z,100132.09
2022-09-16T04:14:53.557Z,100126.34
2022-09-16T04:17:20.040Z,100147.34
2022-09-16T04:19:46.499Z,100163.22
2022-09-16T04:22:12.961Z,100140.03
2022-09-16T04:24:39.421Z,100166.22
2022-09-16T04:27:05.933Z,100100.03
2022-09-16T04:29:32.835Z,100163.22
2022-09-16T04:31:59.335Z,100123.50
2022-09-16T04:34:25.966Z,100162.31
2022-09-16T04:36:52.407Z,100160.56
2022-09-16T04:39:19.544Z,100131.69
2022-09-16T04:41:46.050Z,100154.53
2022-09-16T04:44:12.770Z,100160.75
2022-09-16T04:46:39.308Z,100163.50
2022-09-16T04:49:06.573Z,100039.56
2022-09-16T04:51:33.244Z,100153.34
2022-09-16T04:54:00.089Z,100128.78
2022-09-16T04:56:28.980Z,100161.66
2022-09-16T04:58:58.367Z,100166.78
2022-09-16T05:01:27.353Z,100169.78
2022-09-16T05:03:56.976Z,100169.84
2022-09-16T05:06:30.018Z,100163.38
2022-09-16T05:08:57.591Z,100159.13
2022-09-16T05:11:27.366Z,100168.53
2022-09-16T05:13:54.626Z,100164.38
2022-09-16T05:16:22.888Z,100114.09
2022-09-16T05:18:51.068Z,100131.31
2022-09-16T05:21:19.740Z,100165.53
2022-09-16T05:23:47.381Z,100176.16
2022-09-16T05:26:17.098Z,100168.50
2022-09-16T05:28:43.709Z,100169.50
2022-09-16T05:31:15.016Z,100141.72
2022-09-16T05:33:43.700Z,100148.09
2022-09-16T05:36:15.773Z,100161.50
2022-09-16T05:38:54.313Z,100152.03
2022-09-16T05:41:29.253Z,100159.44
2022-09-16T05:43:59.367Z,100157.94
2022-09-16T05:46:26.376Z,100167.47
2022-09-16T05:48:53.162Z,100166.06
2022-09-16T05:51:21.872Z,100178.22
2022-09-16T05:53:49.858Z,100159.72
2022-09-16T05:56:25.788Z,100133.28
2022-09-16T05:58:57.933Z,100171.78
2022-09-16T06:01:27.236Z,100185.53
2022-09-16T06:03:55.071Z,100147.00
2022-09-16T06:06:44.896Z,100189.38
2022-09-16T06:09:17.586Z,100199.94
2022-09-16T06:11:49.035Z,100194.66
2022-09-16T06:14:16.589Z,100202.34
2022-09-16T06:16:43.750Z,100195.78
2022-09-16T06:19:14.463Z,100181.78
2022-09-16T06:21:41.966Z,100195.13
2022-09-16T06:24:09.022Z,100187.69
2022-09-16T06:26:37.994Z,100184.66
2022-09-16T06:29:05.707Z,100166.91
2022-09-16T06:31:32.717Z,100183.69
2022-09-16T06:33:59.267Z,100187.91
2022-09-16T06:36:29.966Z,100175.97
2022-09-16T06:38:56.751Z,100168.13
2022-09-16T06:41:24.107Z,100158.34
2022-09-16T06:43:52.024Z,100177.63
2022-09-16T06:46:24.670Z,100184.41
2022-09-16T06:48:53.940Z,100190.03
2022-09-16T06:51:25.703Z,100146.00
2022-09-16T06:53:53.398Z,100192.00
2022-09-16T06:56:21.110Z,100185.03
2022-09-16T06:58:49.477Z,100188.03
2022-09-16T07:01:18.344Z,100207.75
2022-09-16T07:03:47.551Z,100192.59
2022-09-16T07:06:15.261Z,100168.72
2022-09-16T07:08:42.360Z,100194.22
2022-09-16T07:11:14.175Z,100194.19
2022-09-16T07:13:41.210Z,100181.63
2022-09-16T07:16:13.313Z,100201.81
2022-09-16T07:18:40.929Z,100177.22
2022-09-16T07:21:10.421Z,100196.72
2022-09-16T07:23:37.952Z,100174.69
2022-09-16T07:26:08.849Z,100192.19
2022-09-16T07:28:36.429Z,100192.47
2022-09-16T07:31:04.999Z,100200.66
2022-09-16T07:33:33.334Z,100195.00
2022-09-16T07:36:00.796Z,100194.72
2022-09-16T07:38:29.078Z,100193.44
2022-09-16T07:40:55.884Z,100206.28
2022-09-16T07:43:22.429Z,100206.09
2022-09-16T07:45:56.439Z,100204.94
2022-09-16T07:48:23.029Z,100029.13
2022-09-16T07:51:01.616Z,100153.22
2022-09-16T07:53:29.738Z,100166.88
2022-09-16T07:55:57.301Z,100183.06
2022-09-16T07:58:23.820Z,100197.81
2022-09-16T08:00:50.521Z,100200.56
2022-09-16T08:03:17.832Z,100152.19
2022-09-16T08:05:44.873Z,100210.50
2022-09-16T08:08:11.412Z,100209.47
2022-09-16T08:10:38.216Z,100208.53
2022-09-16T08:13:06.059Z,100209.63
2022-09-16T08:15:33.214Z,100171.81
2022-09-16T08:17:59.875Z,100168.44
2022-09-16T08:20:27.125Z,100204.38
2022-09-16T08:22:57.420Z,100207.22
2022-09-16T08:25:25.113Z,100208.13
2022-09-16T08:27:54.158Z,100214.91
2022-09-16T08:30:23.329Z,100216.75
2022-09-16T08:32:57.081Z,100217.69
2022-09-16T08:35:23.929Z,100212.16
2022-09-16T08:37:50.509Z,100204.09
2022-09-16T08:42:59.281Z,100224.78
2022-09-16T08:45:56.793Z,100223.31
2022-09-16T08:48:52.606Z,100190.16
2022-09-16T08:51:20.228Z,100197.84
2022-09-16T08:54:02.490Z,100223.72
2022-09-16T08:56:31.806Z,100200.66
2022-09-16T08:59:01.170Z,100206.56
2022-09-16T09:01:50.602Z,100231.25
2022-09-16T09:04:17.483Z,100196.44
2022-09-16T09:06:44.034Z,100228.56
2022-09-16T09:09:35.547Z,100223.84
2022-09-16T09:12:08.991Z,100227.88
2022-09-16T09:14:43.276Z,100220.41
2022-09-16T09:17:26.948Z,100225.72
2022-09-16T09:20:10.538Z,100220.34
2022-09-16T09:23:01.931Z,100224.66
2022-09-16T09:25:40.070Z,100178.25
2022-09-16T09:28:17.312Z,100217.63
2022-09-16T09:30:53.651Z,100216.94
2022-09-16T09:33:46.890Z,100209.88
2022-09-16T09:36:41.935Z,100201.44
2022-09-16T09:39:11.445Z,100197.38
2022-09-16T09:41:46.651Z,100194.03
2022-09-16T09:44:40.814Z,100189.84
2022-09-16T09:47:27.685Z,100178.66
2022-09-16T09:49:57.752Z,100191.72
2022-09-16T09:52:44.211Z,100179.75
2022-09-16T09:55:19.329Z,100171.69
2022-09-16T09:58:01.127Z,100179.28
2022-09-16T10:00:28.097Z,100160.50
2022-09-16T10:03:03.988Z,100147.50
2022-09-16T10:05:31.201Z,100186.94
2022-09-16T10:08:00.380Z,100189.41
2022-09-16T10:10:31.386Z,100194.50
2022-09-16T10:13:07.676Z,100190.16
2022-09-16T10:15:35.216Z,100198.03
2022-09-16T10:18:03.206Z,100182.81
2022-09-16T10:20:38.158Z,100174.09
2022-09-16T10:23:16.536Z,100188.84
2022-09-16T10:25:43.784Z,100155.88
2022-09-16T10:28:23.355Z,100164.34
2022-09-16T10:30:52.699Z,100155.81
2022-09-16T10:33:29.273Z,100137.59
2022-09-16T10:36:10.275Z,100135.06
2022-09-16T10:38:42.197Z,100143.53
2022-09-16T10:41:16.465Z,100139.78
2022-09-16T10:44:06.913Z,100140.72
2022-09-16T10:46:33.960Z,100150.72
2022-09-16T10:49:02.813Z,100149.91
2022-09-16T10:51:31.287Z,100169.28
2022-09-16T10:54:00.714Z,100184.72
2022-09-16T10:56:29.557Z,100176.78
2022-09-16T10:59:09.606Z,100260.09
2022-09-16T11:02:04.545Z,100261.41
2022-09-16T11:04:40.369Z,100274.13
2022-09-16T11:07:31.760Z,100282.72
2022-09-16T11:10:09.699Z,100271.28
2022-09-16T11:12:55.270Z,100259.91
2022-09-16T11:15:41.111Z,100243.22
2022-09-16T11:18:19.953Z,100179.97
2022-09-16T11:20:53.007Z,100224.47
2022-09-16T11:23:47.442Z,100224.06
2022-09-16T11:26:26.050Z,100222.88
2022-09-16T11:29:03.617Z,100213.81
2022-09-16T11:31:39.502Z,100203.69
2022-09-16T11:34:25.211Z,100208.06
2022-09-16T11:37:14.527Z,100187.13
2022-09-16T11:39:59.382Z,100194.22
2022-09-16T11:42:39.112Z,100190.91
2022-09-16T11:45:35.327Z,100206.63
2022-09-16T11:48:26.766Z,100208.09
2022-09-16T11:51:05.563Z,100219.16
2022-09-16T11:53:45.858Z,100227.59
2022-09-16T11:56:15.300Z,100220.81
2022-09-16T11:58:54.541Z,100222.75
2022-09-16T12:01:42.949Z,100227.59
2022-09-16T12:04:16.718Z,100207.47
2022-09-16T12:06:55.346Z,100195.72
2022-09-16T12:09:35.079Z,100206.31
2022-09-16T12:12:14.917Z,100200.56
2022-09-16T12:14:45.618Z,100194.59
2022-09-16T12:17:22.446Z,100202.03
2022-09-16T12:20:10.953Z,100208.78
2022-09-16T12:22:45.766Z,100199.97
2022-09-16T12:25:28.314Z,100221.56
2022-09-16T12:28:03.646Z,100226.66
2022-09-16T12:30:36.366Z,100228.72
2022-09-16T12:33:16.937Z,100239.28
2022-09-16T12:36:09.474Z,100240.47
2022-09-16T12:38:36.108Z,100241.16
2022-09-16T12:41:27.382Z,100174.75
2022-09-16T12:44:33.855Z,100219.09
2022-09-16T12:47:21.229Z,100214.94
2022-09-16T12:49:56.792Z,100209.16
2022-09-16T12:52:29.533Z,100211.53
2022-09-16T12:55:26.803Z,100217.16
2022-09-16T12:58:14.681Z,100225.09
2022-09-16T13:00:53.486Z,100215.16
2022-09-16T13:03:27.544Z,100182.47
2022-09-16T13:05:56.968Z,100173.88
2022-09-16T13:08:33.895Z,100140.38
2022-09-16T13:11:41.197Z,100160.41
2022-09-16T13:13:54.306Z,100173.22
2022-09-16T13:16:30.627Z,100182.06
2022-09-16T13:19:24.656Z,100195.22
2022-09-16T13:21:56.096Z,100153.16
2022-09-16T13:24:39.033Z,100194.41
2022-09-16T13:27:36.169Z,100200.53
2022-09-16T13:30:08.602Z,100199.13
2022-09-16T13:32:43.498Z,100162.78
2022-09-16T13:35:19.078Z,100193.22
2022-09-16T13:37:50.129Z,100149.56
2022-09-16T13:40:25.726Z,100167.25
2022-09-16T13:43:09.321Z,100187.84
2022-09-16T13:45:45.621Z,100130.56
2022-09-16T13:48:24.634Z,100185.97
2022-09-16T13:50:57.883Z,100187.72
2022-09-16T13:53:29.504Z,100192.22
2022-09-16T13:56:01.151Z,100199.13
2022-09-16T13:58:36.400Z,100160.41
2022-09-16T14:01:27.912Z,100183.69
2022-09-16T14:04:13.169Z,100181.84
2022-09-16T14:06:49.171Z,100195.59
2022-09-16T14:09:45.503Z,100192.97
2022-09-16T14:12:48.592Z,100200.41
2022-09-16T14:15:16.243Z,100193.81
2022-09-16T14:17:50.966Z,100200.25
2022-09-16T14:20:21.756Z,100172.66
2022-09-16T14:22:48.532Z,100201.09
2022-09-16T14:25:34.755Z,100190.41
2022-09-16T14:28:28.092Z,100189.72
2022-09-16T14:30:56.018Z,100199.75
2022-09-16T14:33:26.922Z,100193.81
2022-09-16T14:35:55.610Z,100183.03
2022-09-16T14:38:44.949Z,100180.59
2022-09-16T14:41:28.862Z,100129.13
2022-09-16T14:44:02.549Z,100149.31
2022-09-16T14:46:29.146Z,100131.63
2022-09-16T14:48:56.291Z,100131.25
2022-09-16T14:51:25.196Z,100129.31
2022-09-16T14:54:11.786Z,100144.84
2022-09-16T14:56:40.039Z,100151.00
2022-09-16T14:59:10.550Z,100123.66
2022-09-16T15:01:37.211Z,100173.63
2022-09-16T15:04:08.724Z,100139.50
2022-09-16T15:06:43.548Z,100138.91
2022-09-16T15:09:23.677Z,100134.00
2022-09-16T15:11:57.988Z,100165.44
2022-09-16T15:14:24.707Z,100163.78
2022-09-16T15:16:56.065Z,100141.09
2022-09-16T15:19:28.130Z,100163.34
2022-09-16T15:21:54.882Z,100118.91
2022-09-16T15:24:24.877Z,100157.53
2022-09-16T15:26:54.089Z,100153.38
2022-09-16T15:29:20.915Z,100159.41
2022-09-16T15:31:47.855Z,100164.63
2022-09-16T15:34:23.290Z,100163.38
2022-09-16T15:36:54.753Z,100170.56
2022-09-16T15:39:24.304Z,100159.44
2022-09-16T15:42:04.918Z,100111.72
2022-09-16T15:44:36.963Z,100155.69
2022-09-16T15:47:04.388Z,100159.56
2022-09-16T15:49:33.769Z,100160.38
2022-09-16T15:52:08.685Z,100160.22
2022-09-16T15:54:45.066Z,100126.44
2022-09-16T15:57:23.062Z,100158.31
2022-09-16T16:00:10.788Z,100101.34
2022-09-16T16:02:40.257Z,100154.47
2022-09-16T16:05:11.871Z,100149.56
2022-09-16T16:07:50.453Z,100160.94
2022-09-16T16:10:20.768Z,100123.88
2022-09-16T16:12:51.922Z,100130.28
2022-09-16T16:15:25.222Z,100148.97
2022-09-16T16:17:53.565Z,100095.75
2022-09-16T16:20:21.805Z,100151.47
2022-09-16T16:22:49.059Z,100157.34
2022-09-16T16:25:15.832Z,100160.16
2022-09-16T16:27:45.771Z,100109.25
2022-09-16T16:30:12.589Z,100174.59
2022-09-16T16:32:41.984Z,100163.31
2022-09-16T16:35:08.866Z,100172.97
2022-09-16T16:37:50.679Z,100106.47
2022-09-16T16:40:17.400Z,100153.09
2022-09-16T16:42:44.322Z,100177.38
2022-09-16T16:45:14.543Z,100144.75
2022-09-16T16:47:42.024Z,100177.44
2022-09-16T16:50:09.069Z,100182.56
2022-09-16T16:52:35.648Z,100163.47
2022-09-16T16:55:02.116Z,100151.06
2022-09-16T16:57:28.646Z,100129.56
2022-09-16T16:59:55.142Z,100159.53
2022-09-16T17:02:21.782Z,100174.94
2022-09-16T17:04:48.297Z,100188.03
2022-09-16T17:07:25.609Z,100181.72
2022-09-16T17:09:53.788Z,100192.88
2022-09-16T17:12:20.632Z,100197.75
2022-09-16T17:14:47.246Z,100203.38
2022-09-16T17:17:13.743Z,100162.72
2022-09-16T17:19:40.239Z,100168.75
2022-09-16T17:22:06.831Z,100184.91
2022-09-16T17:24:34.633Z,100150.78
2022-09-16T17:27:01.502Z,100134.22
2022-09-16T17:29:28.007Z,100196.09
2022-09-16T17:31:56.889Z,100202.22
2022-09-16T17:34:23.762Z,100209.66
2022-09-16T17:36:50.240Z,100184.56
2022-09-16T17:39:19.078Z,100212.09
2022-09-16T17:41:48.563Z,100192.91
2022-09-16T17:44:15.818Z,100227.91
2022-09-16T17:46:43.088Z,100199.03
2022-09-16T17:49:23.750Z,100220.69
2022-09-16T17:51:51.439Z,100191.81
2022-09-16T17:54:18.248Z,100190.34
2022-09-16T17:56:45.301Z,100212.25
2022-09-16T17:59:13.288Z,100216.13
2022-09-16T18:01:40.184Z,100193.22
2022-09-16T18:04:07.446Z,100227.84
2022-09-16T18:06:45.466Z,100211.81
2022-09-16T18:09:13.081Z,100221.22
2022-09-16T18:11:39.967Z,100231.31
2022-09-16T18:14:10.030Z,100224.88
2022-09-16T18:16:36.614Z,100183.47
2022-09-16T18:19:04.135Z,100235.03
2022-09-16T18:21:31.421Z,100231.50
2022-09-16T18:24:00.327Z,100236.81
2022-09-16T18:26:27.352Z,100238.06
2022-09-16T18:29:11.533Z,100229.13
2022-09-16T18:31:46.849Z,100233.84
2022-09-16T18:34:13.851Z,100211.78
2022-09-16T18:36:40.784Z,100212.09
2022-09-16T18:39:11.509Z,100232.81
2022-09-16T18:41:40.464Z,100235.31
2022-09-16T18:44:12.793Z,100239.63
2022-09-16T18:46:39.582Z,100240.59
2022-09-16T18:49:06.660Z,100239.75
2022-09-16T18:51:38.450Z,100237.13
2022-09-16T18:54:11.439Z,100244.56
2022-09-16T18:56:39.029Z,100240.47
2022-09-16T18:59:23.950Z,100175.97
2022-09-16T19:01:56.874Z,100242.00
2022-09-16T19:04:27.173Z,100239.34
2022-09-16T19:06:59.199Z,100196.06
2022-09-16T19:09:25.835Z,100183.63
2022-09-16T19:11:53.957Z,100234.47
2022-09-16T19:14:24.151Z,100243.50
2022-09-16T19:16:50.806Z,100224.00
2022-09-16T19:19:17.308Z,100204.47
2022-09-16T19:21:44.315Z,100216.41
2022-09-16T19:24:14.071Z,100256.69
2022-09-16T19:26:42.129Z,100266.66
2022-09-16T19:29:08.989Z,100263.81
2022-09-16T19:31:38.054Z,100274.81
2022-09-16T19:34:05.406Z,100268.75
2022-09-16T19:36:32.710Z,100259.59
2022-09-16T19:38:59.995Z,100266.13
2022-09-16T19:41:29.802Z,100266.47
2022-09-16T19:43:58.279Z,100246.16
2022-09-16T19:46:25.920Z,100263.91
2022-09-16T19:48:52.732Z,100255.28
2022-09-16T19:51:22.614Z,100262.50
2022-09-16T19:53:49.640Z,100253.50
2022-09-16T19:56:21.221Z,100264.03
2022-09-16T19:58:48.492Z,100237.19
2022-09-16T20:01:18.064Z,100258.94
2022-09-16T20:03:45.071Z,100266.84
2022-09-16T20:06:14.498Z,100236.25
2022-09-16T20:08:42.427Z,100270.78
2022-09-16T20:11:14.406Z,100275.88
2022-09-16T20:13:41.006Z,100275.22
2022-09-16T20:16:09.379Z,100267.50
2022-09-16T20:18:36.544Z,100248.63
2022-09-16T20:21:08.268Z,100229.03
2022-09-16T20:23:35.162Z,100282.09
2022-09-16T20:26:04.023Z,100277.06
2022-09-16T20:28:34.725Z,100281.88
2022-09-16T20:31:01.863Z,100276.16
2022-09-16T20:33:33.102Z,100286.66
2022-09-16T20:36:08.256Z,100288.97
2022-09-16T20:38:34.953Z,100238.97
2022-09-16T20:41:09.229Z,100293.72
2022-09-16T20:43:36.342Z,100263.59
2022-09-16T20:46:05.021Z,100285.88
2022-09-16T20:48:31.775Z,100293.72
2022-09-16T20:51:06.666Z,100286.44
2022-09-16T20:53:36.146Z,100289.97
2022-09-16T20:56:04.635Z,100278.03
2022-09-16T20:58:31.349Z,100266.69
2022-09-16T21:01:06.645Z,100273.28
2022-09-16T21:03:33.855Z,100261.06
2022-09-16T21:06:07.777Z,100279.19
2022-09-16T21:08:36.883Z,100269.50
2022-09-16T21:11:07.103Z,100284.50
2022-09-16T21:13:34.211Z,100255.06
2022-09-16T21:16:00.856Z,100295.56
2022-09-16T21:18:27.958Z,100298.78
2022-09-16T21:21:04.627Z,100282.66
2022-09-16T21:23:32.426Z,100298.06
2022-09-16T21:26:16.169Z,100280.00
2022-09-16T21:28:43.454Z,100304.13
2022-09-16T21:31:13.332Z,100315.47
2022-09-16T21:33:41.714Z,100282.63
2022-09-16T21:36:10.403Z,100255.06
2022-09-16T21:38:38.600Z,100282.13
2022-09-16T21:41:13.665Z,100321.44
2022-09-16T21:43:43.012Z,100299.31
2022-09-16T21:46:11.748Z,100280.28
2022-09-16T21:48:38.531Z,100286.56
2022-09-16T21:51:12.974Z,100330.22
2022-09-16T21:53:43.203Z,100336.03
2022-09-16T21:56:15.419Z,100288.69
2022-09-16T21:58:42.673Z,100326.25
2022-09-16T22:01:11.368Z,100331.69
2022-09-16T22:03:39.749Z,100332.41
2022-09-16T22:06:07.673Z,100327.44
2022-09-16T22:08:34.709Z,100304.50
2022-09-16T22:11:07.264Z,100340.66
2022-09-16T22:13:34.426Z,100340.03
2022-09-16T22:16:01.913Z,100334.44
2022-09-16T22:18:30.174Z,100320.69
2022-09-16T22:21:02.336Z,100341.88
2022-09-16T22:23:28.798Z,100326.88
2022-09-16T22:25:55.270Z,100321.00
2022-09-16T22:28:21.703Z,100346.34
2022-09-16T22:30:48.289Z,100295.28
2022-09-16T22:33:14.776Z,100300.03
2022-09-16T22:35:41.300Z,100339.56
2022-09-16T22:38:07.822Z,100346.94
2022-09-16T22:40:34.494Z,100354.97
2022-09-16T22:43:01.027Z,100334.69
2022-09-16T22:45:27.481Z,100304.78
2022-09-16T22:47:54.002Z,100346.09
2022-09-16T22:50:20.483Z,100324.78
2022-09-16T22:52:47.068Z,100335.81
2022-09-16T22:55:13.614Z,100337.88
2022-09-16T22:57:40.043Z,100338.19
2022-09-16T23:00:07.055Z,100336.22
2022-09-16T23:02:33.518Z,100348.00
2022-09-16T23:05:00.180Z,100298.66
2022-09-16T23:07:26.819Z,100313.50
2022-09-16T23:09:53.354Z,100280.66
2022-09-16T23:12:19.900Z,100312.31
2022-09-16T23:14:46.395Z,100283.09
2022-09-16T23:17:12.930Z,100273.63
2022-09-16T23:19:39.393Z,100261.00
2022-09-16T23:22:06.054Z,100320.44
2022-09-16T23:24:32.545Z,100323.31
2022-09-16T23:26:59.376Z,100323.38
2022-09-16T23:29:25.831Z,100331.59
2022-09-16T23:31:52.841Z,100333.69
2022-09-16T23:34:21.397Z,100322.66
2022-09-16T23:36:48.804Z,100324.13
2022-09-16T23:39:16.224Z,100329.28
2022-09-16T23:41:43.499Z,100339.31
2022-09-16T23:44:13.036Z,100328.50
2022-09-16T23:46:39.597Z,100304.50
2022-09-16T23:49:06.194Z,100282.97
2022-09-16T23:51:32.768Z,100327.56
2022-09-16T23:53:59.641Z,100299.56
2022-09-16T23:56:26.748Z,100340.09
2022-09-16T23:58:53.956Z,100318.81
